createdAt,value
2018-08-30T00:00:26.515Z,25.84
2018-08-30T00:02:59.698Z,25.69
2018-08-30T00:05:29.870Z,25.94
2018-08-30T00:07:59.443Z,25.91
2018-08-30T00:10:29.842Z,25.59
2018-08-30T00:12:59.218Z,25.57
2018-08-30T00:15:29.673Z,25.49
2018-08-30T00:18:00.662Z,25.49
2018-08-30T00:20:29.975Z,25.52
2018-08-30T00:22:59.686Z,25.65
2018-08-30T00:25:29.083Z,25.56
2018-08-30T00:27:58.438Z,25.64
2018-08-30T00:30:29.304Z,25.43
2018-08-30T00:32:59.297Z,25.61
2018-08-30T00:35:29.397Z,25.51
2018-08-30T00:37:59.379Z,25.64
2018-08-30T00:40:30.347Z,25.56
2018-08-30T00:43:02.088Z,25.56
2018-08-30T00:45:31.736Z,25.56
2018-08-30T00:48:01.251Z,25.62
2018-08-30T00:50:30.896Z,25.52
2018-08-30T00:53:00.595Z,25.48
2018-08-30T00:55:30.023Z,25.32
2018-08-30T00:57:59.326Z,25.24
2018-08-30T01:00:30.195Z,25.28
2018-08-30T01:03:01.084Z,25.33
2018-08-30T01:05:30.439Z,25.47
2018-08-30T01:07:59.966Z,25.51
2018-08-30T01:10:30.175Z,25.40
2018-08-30T01:12:59.413Z,25.25
2018-08-30T01:15:38.042Z,25.22
2018-08-30T01:18:07.386Z,25.12
2018-08-30T01:20:37.071Z,25.10
2018-08-30T01:23:07.379Z,24.93
2018-08-30T01:25:39.299Z,24.95
2018-08-30T01:28:11.965Z,24.56
2018-08-30T01:30:42.569Z,24.43
2018-08-30T01:33:13.448Z,24.44
2018-08-30T01:35:43.359Z,24.33
2018-08-30T01:38:12.686Z,24.18
2018-08-30T01:40:42.017Z,24.24
2018-08-30T01:43:15.061Z,23.91
2018-08-30T01:45:44.528Z,23.92
2018-08-30T01:48:15.656Z,23.96
2018-08-30T01:50:46.192Z,23.73
2018-08-30T01:53:16.194Z,23.98
2018-08-30T01:55:45.650Z,24.22
2018-08-30T01:58:16.676Z,24.50
2018-08-30T02:00:51.776Z,24.39
2018-08-30T02:03:21.775Z,24.66
2018-08-30T02:05:51.356Z,25.01
2018-08-30T02:08:20.960Z,24.53
2018-08-30T02:10:50.651Z,24.96
2018-08-30T02:13:19.864Z,24.81
2018-08-30T02:15:50.803Z,24.98
2018-08-30T02:18:22.290Z,24.86
2018-08-30T02:20:53.575Z,25.18
2018-08-30T02:23:24.186Z,25.34
2018-08-30T02:25:54.140Z,25.47
2018-08-30T02:28:24.080Z,25.22
2018-08-30T02:30:54.387Z,25.19
2018-08-30T02:33:25.340Z,25.31
2018-08-30T02:36:03.922Z,25.28
2018-08-30T02:38:37.602Z,25.32
2018-08-30T02:41:09.960Z,25.31
2018-08-30T02:43:42.064Z,25.28
2018-08-30T02:46:12.934Z,25.13
2018-08-30T02:48:44.658Z,25.13
2018-08-30T02:51:22.467Z,25.29
2018-08-30T02:53:54.607Z,25.17
2018-08-30T02:56:26.254Z,24.87
2018-08-30T02:58:58.013Z,24.68
2018-08-30T03:01:30.177Z,24.75
2018-08-30T03:04:02.989Z,24.59
2018-08-30T03:06:38.934Z,24.58
2018-08-30T03:09:15.981Z,24.50
2018-08-30T03:11:50.955Z,24.28
2018-08-30T03:14:25.832Z,24.22
2018-08-30T03:16:57.908Z,24.49
2018-08-30T03:19:29.755Z,24.42
2018-08-30T03:22:02.835Z,24.48
2018-08-30T03:24:35.048Z,24.05
2018-08-30T03:27:06.931Z,23.70
2018-08-30T03:29:40.012Z,23.31
2018-08-30T03:32:19.774Z,23.12
2018-08-30T03:34:51.097Z,23.17
2018-08-30T03:37:23.525Z,23.19
2018-08-30T03:39:56.931Z,23.48
2018-08-30T03:42:31.310Z,23.45
2018-08-30T03:45:08.652Z,23.57
2018-08-30T03:47:41.578Z,23.88
2018-08-30T03:50:15.909Z,24.18
2018-08-30T03:52:50.758Z,24.23
2018-08-30T03:55:24.041Z,24.38
2018-08-30T03:57:59.734Z,24.59
2018-08-30T04:00:43.559Z,24.44
2018-08-30T04:03:16.304Z,24.59
2018-08-30T04:05:49.678Z,24.63
2018-08-30T04:08:21.608Z,24.69
2018-08-30T04:10:55.262Z,24.83
2018-08-30T04:13:27.530Z,24.88
2018-08-30T04:15:59.399Z,24.78
2018-08-30T04:18:35.279Z,24.78
2018-08-30T04:21:08.567Z,24.56
2018-08-30T04:23:43.983Z,24.57
2018-08-30T04:26:17.368Z,24.85
2018-08-30T04:28:49.876Z,24.69
2018-08-30T04:31:25.681Z,24.71
2018-08-30T04:34:01.606Z,24.68
2018-08-30T04:36:34.739Z,24.88
2018-08-30T04:39:12.607Z,24.93
2018-08-30T04:41:44.424Z,24.80
2018-08-30T04:44:21.361Z,24.80
2018-08-30T04:46:51.975Z,24.26
2018-08-30T04:49:22.052Z,24.74
2018-08-30T04:51:52.489Z,24.85
2018-08-30T04:54:22.995Z,24.65
2018-08-30T04:56:53.017Z,24.71
2018-08-30T04:59:23.096Z,24.80
2018-08-30T05:01:52.739Z,24.93
2018-08-30T05:04:22.185Z,24.88
2018-08-30T05:06:51.495Z,24.70
2018-08-30T05:09:21.182Z,24.81
2018-08-30T05:11:50.554Z,24.70
2018-08-30T05:14:20.944Z,24.51
2018-08-30T05:16:50.471Z,24.49
2018-08-30T05:19:19.676Z,24.54
2018-08-30T05:21:48.899Z,24.62
2018-08-30T05:24:19.244Z,24.58
2018-08-30T05:26:48.475Z,24.66
2018-08-30T05:29:17.772Z,24.86
2018-08-30T05:31:47.332Z,24.92
2018-08-30T05:34:17.182Z,25.10
2018-08-30T05:36:46.432Z,24.77
2018-08-30T05:39:16.700Z,24.98
2018-08-30T05:41:46.849Z,25.12
2018-08-30T05:44:16.746Z,25.09
2018-08-30T05:46:46.056Z,25.11
2018-08-30T05:49:15.307Z,25.31
2018-08-30T05:51:46.618Z,25.24
2018-08-30T05:54:15.954Z,25.18
2018-08-30T05:56:46.691Z,25.11
2018-08-30T05:59:16.128Z,25.14
2018-08-30T06:01:45.459Z,24.84
2018-08-30T06:04:14.981Z,24.84
2018-08-30T06:06:44.328Z,24.94
2018-08-30T06:09:14.451Z,25.07
2018-08-30T06:11:43.717Z,25.19
2018-08-30T06:14:12.994Z,24.96
2018-08-30T06:16:42.291Z,25.03
2018-08-30T06:19:11.557Z,25.26
2018-08-30T06:21:42.252Z,25.28
2018-08-30T06:24:12.354Z,25.43
2018-08-30T06:26:42.616Z,25.28
2018-08-30T06:29:13.710Z,25.53
2018-08-30T06:31:43.737Z,25.51
2018-08-30T06:34:12.989Z,25.51
2018-08-30T06:36:45.762Z,25.30
2018-08-30T06:39:16.343Z,25.09
2018-08-30T06:41:45.957Z,25.05
2018-08-30T06:44:15.521Z,25.22
2018-08-30T06:46:48.687Z,25.21
2018-08-30T06:49:18.516Z,25.06
2018-08-30T06:51:47.803Z,25.30
2018-08-30T06:54:18.189Z,25.47
2018-08-30T06:56:47.569Z,25.33
2018-08-30T06:59:18.884Z,25.11
2018-08-30T07:01:48.202Z,24.97
2018-08-30T07:04:17.415Z,25.21
2018-08-30T07:06:47.181Z,25.33
2018-08-30T07:09:16.903Z,25.38
2018-08-30T07:11:46.218Z,25.35
2018-08-30T07:14:16.308Z,25.17
2018-08-30T07:16:45.589Z,25.30
2018-08-30T07:19:15.429Z,25.32
2018-08-30T07:21:46.009Z,25.17
2018-08-30T07:24:15.285Z,25.15
2018-08-30T07:26:44.787Z,24.99
2018-08-30T07:29:14.369Z,24.78
2018-08-30T07:31:43.736Z,25.05
2018-08-30T07:34:13.866Z,25.27
2018-08-30T07:36:43.323Z,25.23
2018-08-30T07:39:15.369Z,25.30
2018-08-30T07:41:45.640Z,25.35
2018-08-30T07:44:15.120Z,25.11
2018-08-30T07:46:46.285Z,24.97
2018-08-30T07:49:15.533Z,24.97
2018-08-30T07:51:44.948Z,24.78
2018-08-30T07:54:14.280Z,24.51
2018-08-30T07:56:43.867Z,24.80
2018-08-30T07:59:13.368Z,24.97
2018-08-30T08:04:19.303Z,24.78
2018-08-30T08:06:48.706Z,25.00
2018-08-30T08:09:19.568Z,25.47
2018-08-30T08:11:50.582Z,25.62
2018-08-30T08:14:21.631Z,25.79
2018-08-30T08:16:50.945Z,26.15
2018-08-30T08:19:22.878Z,26.48
2018-08-30T08:21:54.133Z,26.77
2018-08-30T08:26:57.813Z,26.73
2018-08-30T08:29:27.467Z,27.15
2018-08-30T08:31:57.409Z,27.28
2018-08-30T08:34:26.751Z,27.34
2018-08-30T08:36:57.862Z,27.31
2018-08-30T08:39:28.390Z,26.97
2018-08-30T08:41:59.182Z,26.67
2018-08-30T08:44:30.869Z,27.18
2018-08-30T08:47:01.319Z,27.80
2018-08-30T08:49:30.653Z,28.24
2018-08-30T08:52:01.058Z,28.23
2018-08-30T08:54:30.342Z,28.07
2018-08-30T08:57:00.497Z,28.07
2018-08-30T08:59:30.254Z,27.87
2018-08-30T09:02:01.413Z,27.99
2018-08-30T09:04:30.671Z,28.45
2018-08-30T09:07:01.109Z,28.71
2018-08-30T09:09:32.549Z,28.45
2018-08-30T09:12:01.936Z,28.61
2018-08-30T09:14:33.431Z,28.78
2018-08-30T09:17:03.468Z,29.00
2018-08-30T09:19:33.717Z,28.98
2018-08-30T09:22:03.484Z,29.04
2018-08-30T09:24:32.979Z,29.20
2018-08-30T09:27:02.391Z,29.24
2018-08-30T09:29:33.206Z,29.26
2018-08-30T09:32:03.025Z,29.50
2018-08-30T09:34:33.565Z,29.67
2018-08-30T09:37:03.099Z,30.05
2018-08-30T09:39:33.333Z,29.81
2018-08-30T09:42:02.748Z,29.35
2018-08-30T09:44:33.259Z,29.09
2018-08-30T09:47:03.431Z,29.89
2018-08-30T09:49:32.827Z,30.17
2018-08-30T09:52:03.037Z,30.38
2018-08-30T09:54:32.310Z,30.15
2018-08-30T09:57:01.656Z,30.26
2018-08-30T09:59:31.236Z,30.68
2018-08-30T10:02:07.463Z,30.61
2018-08-30T10:04:37.853Z,30.88
2018-08-30T10:07:07.336Z,31.12
2018-08-30T10:09:37.730Z,31.63
2018-08-30T10:12:07.016Z,32.05
2018-08-30T10:14:36.527Z,31.83
2018-08-30T10:17:07.173Z,31.50
2018-08-30T10:19:36.458Z,31.37
2018-08-30T10:22:05.783Z,31.32
2018-08-30T10:24:35.590Z,31.02
2018-08-30T10:27:04.970Z,30.86
2018-08-30T10:29:34.342Z,30.64
2018-08-30T10:32:03.939Z,30.53
2018-08-30T10:34:33.837Z,30.46
2018-08-30T10:37:04.543Z,30.16
2018-08-30T10:39:35.604Z,30.01
2018-08-30T10:42:04.959Z,30.06
2018-08-30T10:44:35.015Z,30.04
2018-08-30T10:47:06.176Z,29.95
2018-08-30T10:49:37.514Z,29.99
2018-08-30T10:52:07.705Z,29.91
2018-08-30T10:54:40.141Z,29.93
2018-08-30T10:57:10.798Z,29.97
2018-08-30T10:59:40.525Z,30.25
2018-08-30T11:02:11.699Z,30.36
2018-08-30T11:04:41.850Z,30.32
2018-08-30T11:07:13.322Z,30.33
2018-08-30T11:09:42.644Z,30.62
2018-08-30T11:12:13.375Z,30.75
2018-08-30T11:14:42.720Z,30.62
2018-08-30T11:17:11.943Z,30.58
2018-08-30T11:19:41.683Z,30.71
2018-08-30T11:22:14.003Z,30.74
2018-08-30T11:24:44.465Z,30.87
2018-08-30T11:27:17.949Z,31.28
2018-08-30T11:29:49.137Z,31.50
2018-08-30T11:32:18.535Z,31.74
2018-08-30T11:34:49.120Z,32.01
2018-08-30T11:37:18.406Z,31.84
2018-08-30T11:39:48.533Z,31.56
2018-08-30T11:42:18.362Z,31.19
2018-08-30T11:44:47.822Z,30.84
2018-08-30T11:47:17.392Z,30.75
2018-08-30T11:49:46.727Z,30.64
2018-08-30T11:52:17.037Z,30.62
2018-08-30T11:54:48.035Z,30.41
2018-08-30T11:57:18.362Z,30.41
2018-08-30T11:59:47.830Z,30.41
2018-08-30T12:02:41.227Z,30.76
2018-08-30T12:05:20.878Z,31.15
2018-08-30T12:08:11.778Z,31.29
2018-08-30T12:11:06.432Z,31.31
2018-08-30T12:13:37.504Z,31.76
2018-08-30T12:19:27.296Z,31.58
2018-08-30T12:21:58.334Z,31.44
2018-08-30T12:24:35.166Z,31.10
2018-08-30T12:27:16.448Z,30.74
2018-08-30T12:33:44.990Z,30.84
2018-08-30T12:36:17.696Z,31.13
2018-08-30T12:38:56.484Z,31.03
2018-08-30T12:41:32.597Z,31.05
2018-08-30T12:44:07.499Z,31.08
2018-08-30T12:46:39.104Z,30.97
2018-08-30T12:49:19.932Z,30.73
2018-08-30T12:51:57.303Z,30.59
2018-08-30T12:54:31.929Z,30.61
2018-08-30T12:57:13.044Z,30.50
2018-08-30T12:59:53.606Z,30.77
2018-08-30T13:02:24.283Z,30.70
2018-08-30T13:04:56.812Z,30.51
2018-08-30T13:07:27.808Z,30.75
2018-08-30T13:10:00.052Z,30.96
2018-08-30T13:12:33.597Z,31.43
2018-08-30T13:15:06.888Z,31.96
2018-08-30T13:17:36.611Z,31.89
2018-08-30T13:20:08.100Z,31.67
2018-08-30T13:22:38.757Z,31.11
2018-08-30T13:25:10.955Z,31.41
2018-08-30T13:27:41.423Z,31.14
2018-08-30T13:30:15.497Z,31.28
2018-08-30T13:32:50.118Z,31.37
2018-08-30T13:37:52.913Z,31.23
2018-08-30T13:40:24.786Z,31.43
2018-08-30T13:42:56.799Z,31.52
2018-08-30T13:45:28.951Z,31.72
2018-08-30T13:47:59.700Z,31.99
2018-08-30T13:50:30.402Z,32.26
2018-08-30T13:53:01.366Z,32.55
2018-08-30T13:55:36.545Z,32.63
2018-08-30T13:58:09.004Z,32.89
2018-08-30T14:00:46.030Z,33.17
2018-08-30T14:03:19.663Z,33.51
2018-08-30T14:05:50.736Z,33.57
2018-08-30T14:08:26.024Z,33.54
2018-08-30T14:10:56.414Z,33.34
2018-08-30T14:13:28.784Z,32.56
2018-08-30T14:16:01.254Z,32.42
2018-08-30T14:18:32.402Z,32.31
2018-08-30T14:21:02.365Z,32.27
2018-08-30T14:23:34.841Z,32.00
2018-08-30T14:26:05.749Z,31.78
2018-08-30T14:28:38.739Z,31.71
2018-08-30T14:31:16.124Z,31.78
2018-08-30T14:33:46.904Z,31.63
2018-08-30T14:36:17.101Z,31.58
2018-08-30T14:38:47.037Z,32.06
2018-08-30T14:41:17.474Z,32.17
2018-08-30T14:43:48.408Z,32.23
2018-08-30T14:46:20.632Z,32.12
2018-08-30T14:48:51.104Z,31.88
2018-08-30T14:51:23.568Z,31.28
2018-08-30T14:53:53.729Z,31.75
2018-08-30T14:56:26.216Z,31.68
2018-08-30T14:58:58.108Z,31.70
2018-08-30T15:01:30.227Z,31.63
2018-08-30T15:04:02.446Z,31.78
2018-08-30T15:06:34.267Z,31.64
2018-08-30T15:09:07.664Z,31.57
2018-08-30T15:11:37.494Z,31.69
2018-08-30T15:14:09.454Z,31.61
2018-08-30T15:16:40.327Z,31.70
2018-08-30T15:19:11.110Z,31.96
2018-08-30T15:21:41.827Z,32.18
2018-08-30T15:24:12.380Z,32.20
2018-08-30T15:26:42.570Z,32.09
2018-08-30T15:29:13.071Z,32.05
2018-08-30T15:31:44.754Z,32.14
2018-08-30T15:34:16.335Z,32.82
2018-08-30T15:36:49.963Z,33.27
2018-08-30T15:39:21.229Z,33.25
2018-08-30T15:41:55.189Z,33.12
2018-08-30T15:44:26.978Z,32.90
2018-08-30T15:47:05.721Z,32.74
2018-08-30T15:49:39.451Z,32.61
2018-08-30T15:52:11.449Z,32.84
2018-08-30T15:54:43.851Z,33.14
2018-08-30T15:57:15.914Z,33.43
2018-08-30T15:59:47.237Z,33.80
2018-08-30T16:02:20.490Z,33.98
2018-08-30T16:04:55.556Z,33.99
2018-08-30T16:07:29.171Z,34.13
2018-08-30T16:10:00.826Z,34.29
2018-08-30T16:12:32.274Z,34.27
2018-08-30T16:15:04.815Z,34.21
2018-08-30T16:17:35.719Z,34.41
2018-08-30T16:20:08.725Z,34.09
2018-08-30T16:23:05.218Z,34.21
2018-08-30T16:25:36.805Z,34.22
2018-08-30T16:28:08.644Z,34.26
2018-08-30T16:30:41.164Z,34.31
2018-08-30T16:33:13.297Z,34.04
2018-08-30T16:35:46.280Z,33.89
2018-08-30T16:38:25.664Z,33.68
2018-08-30T16:40:57.354Z,33.39
2018-08-30T16:43:30.743Z,33.31
2018-08-30T16:46:03.674Z,32.94
2018-08-30T16:48:41.908Z,32.84
2018-08-30T16:51:13.948Z,32.43
2018-08-30T16:56:30.684Z,32.09
2018-08-30T16:59:01.512Z,32.03
2018-08-30T17:01:36.345Z,31.70
2018-08-30T17:04:08.463Z,31.77
2018-08-30T17:06:43.183Z,31.55
2018-08-30T17:09:19.415Z,31.24
2018-08-30T17:11:54.532Z,30.95
2018-08-30T17:14:28.389Z,30.96
2018-08-30T17:17:01.861Z,30.79
2018-08-30T17:19:33.701Z,30.70
2018-08-30T17:22:05.573Z,30.77
2018-08-30T17:24:37.375Z,30.46
2018-08-30T17:27:08.144Z,30.25
2018-08-30T17:29:43.539Z,30.14
2018-08-30T17:32:15.367Z,30.16
2018-08-30T17:34:54.262Z,29.96
2018-08-30T17:37:29.573Z,29.72
2018-08-30T17:40:03.599Z,29.77
2018-08-30T17:42:37.064Z,29.61
2018-08-30T17:45:08.617Z,29.66
2018-08-30T17:47:39.777Z,29.42
2018-08-30T17:50:12.433Z,29.43
2018-08-30T17:52:46.395Z,29.39
2018-08-30T17:55:18.672Z,29.23
2018-08-30T17:57:55.624Z,29.13
2018-08-30T18:00:27.170Z,28.90
2018-08-30T18:02:59.628Z,28.79
2018-08-30T18:05:33.089Z,28.79
2018-08-30T18:08:09.593Z,28.69
2018-08-30T18:10:44.714Z,28.46
2018-08-30T18:13:21.423Z,28.39
2018-08-30T18:15:53.595Z,28.21
2018-08-30T18:18:29.271Z,28.03
2018-08-30T18:21:03.223Z,27.92
2018-08-30T18:23:35.387Z,27.82
2018-08-30T18:26:11.670Z,27.67
2018-08-30T18:28:43.768Z,27.55
2018-08-30T18:31:16.669Z,27.50
2018-08-30T18:33:50.363Z,27.39
2018-08-30T18:36:22.916Z,27.23
2018-08-30T18:38:58.677Z,27.13
2018-08-30T18:41:35.590Z,27.13
2018-08-30T18:44:07.093Z,27.05
2018-08-30T18:46:41.902Z,26.80
2018-08-30T18:49:16.636Z,26.64
2018-08-30T18:51:50.941Z,26.48
2018-08-30T18:54:25.500Z,26.37
2018-08-30T18:56:58.657Z,26.24
2018-08-30T18:59:32.244Z,26.17
2018-08-30T19:02:05.709Z,26.08
2018-08-30T19:04:38.444Z,26.02
2018-08-30T19:07:11.397Z,25.98
2018-08-30T19:09:44.595Z,25.88
2018-08-30T19:12:15.608Z,25.81
2018-08-30T19:14:47.436Z,25.62
2018-08-30T19:17:24.550Z,25.53
2018-08-30T19:19:56.567Z,25.38
2018-08-30T19:22:27.722Z,25.35
2018-08-30T19:25:03.024Z,25.23
2018-08-30T19:27:34.131Z,25.06
2018-08-30T19:30:13.356Z,25.00
2018-08-30T19:32:44.519Z,24.90
2018-08-30T19:35:21.496Z,24.74
2018-08-30T19:37:53.400Z,24.63
2018-08-30T19:40:32.558Z,24.57
2018-08-30T19:43:10.624Z,24.66
2018-08-30T19:45:46.596Z,24.51
2018-08-30T19:48:17.466Z,24.60
2018-08-30T19:50:49.053Z,24.52
2018-08-30T19:53:20.054Z,24.49
2018-08-30T19:55:51.444Z,24.53
2018-08-30T19:58:23.548Z,24.45
2018-08-30T20:00:57.441Z,24.51
2018-08-30T20:03:29.953Z,24.42
2018-08-30T20:06:05.316Z,24.20
2018-08-30T20:08:38.383Z,24.20
2018-08-30T20:11:09.029Z,24.19
2018-08-30T20:13:44.552Z,24.07
2018-08-30T20:16:18.229Z,24.06
2018-08-30T20:18:48.992Z,24.01
2018-08-30T20:21:20.547Z,23.90
2018-08-30T20:23:50.838Z,23.86
2018-08-30T20:26:21.142Z,23.80
2018-08-30T20:28:51.608Z,23.73
2018-08-30T20:31:25.418Z,23.78
2018-08-30T20:33:57.219Z,23.21
2018-08-30T20:36:29.092Z,23.56
2018-08-30T20:39:00.877Z,23.61
2018-08-30T20:41:31.699Z,23.63
2018-08-30T20:44:03.322Z,23.63
2018-08-30T20:46:37.013Z,23.70
2018-08-30T20:49:10.850Z,23.62
2018-08-30T20:51:42.919Z,23.51
2018-08-30T20:54:13.510Z,23.41
2018-08-30T20:56:44.630Z,23.37
2018-08-30T20:59:14.850Z,23.39
2018-08-30T21:01:48.737Z,23.31
2018-08-30T21:04:21.280Z,23.28
2018-08-30T21:06:53.318Z,23.21
2018-08-30T21:09:30.283Z,23.17
2018-08-30T21:12:04.004Z,23.03
2018-08-30T21:14:44.141Z,23.01
2018-08-30T21:17:15.713Z,22.89
2018-08-30T21:19:46.749Z,22.79
2018-08-30T21:22:21.424Z,22.75
2018-08-30T21:24:52.654Z,22.78
2018-08-30T21:27:27.877Z,22.83
2018-08-30T21:30:00.272Z,22.82
2018-08-30T21:32:32.632Z,22.90
2018-08-30T21:35:05.437Z,22.96
2018-08-30T21:37:37.644Z,23.02
2018-08-30T21:40:09.388Z,22.97
2018-08-30T21:42:41.757Z,22.94
2018-08-30T21:45:18.257Z,22.90
2018-08-30T21:47:51.460Z,22.93
2018-08-30T21:50:23.228Z,22.91
2018-08-30T21:52:55.353Z,22.77
2018-08-30T21:55:27.182Z,22.77
2018-08-30T21:57:58.797Z,22.91
2018-08-30T22:00:31.091Z,23.18
2018-08-30T22:03:03.421Z,23.15
2018-08-30T22:05:38.850Z,23.19
2018-08-30T22:08:11.713Z,23.18
2018-08-30T22:10:44.662Z,23.18
2018-08-30T22:13:16.833Z,23.16
2018-08-30T22:15:50.291Z,23.28
2018-08-30T22:18:23.164Z,23.45
2018-08-30T22:20:54.540Z,23.31
2018-08-30T22:23:29.209Z,23.25
2018-08-30T22:26:03.053Z,23.29
2018-08-30T22:28:36.236Z,23.26
2018-08-30T22:31:08.752Z,23.24
2018-08-30T22:33:38.937Z,23.31
2018-08-30T22:36:10.013Z,23.18
2018-08-30T22:38:42.441Z,23.20
2018-08-30T22:41:14.222Z,23.23
2018-08-30T22:43:47.082Z,23.49
2018-08-30T22:46:19.421Z,23.27
2018-08-30T22:48:52.715Z,23.29
2018-08-30T22:53:54.123Z,23.22
2018-08-30T22:56:27.037Z,23.19
2018-08-30T22:58:59.594Z,23.23
2018-08-30T23:01:31.287Z,23.37
2018-08-30T23:04:03.028Z,23.39
2018-08-30T23:06:35.868Z,23.37
2018-08-30T23:09:10.523Z,23.37
2018-08-30T23:11:43.407Z,23.28
2018-08-30T23:14:15.875Z,23.20
2018-08-30T23:16:48.224Z,23.11
2018-08-30T23:19:21.781Z,23.15
2018-08-30T23:21:52.629Z,23.35
2018-08-30T23:24:24.771Z,23.40
2018-08-30T23:27:01.120Z,23.42
2018-08-30T23:29:34.651Z,23.44
2018-08-30T23:32:07.075Z,23.55
2018-08-30T23:34:37.814Z,23.47
2018-08-30T23:37:08.614Z,23.47
2018-08-30T23:39:40.332Z,23.41
2018-08-30T23:42:12.938Z,23.45
2018-08-30T23:44:44.527Z,23.46
2018-08-30T23:47:16.312Z,23.48
2018-08-30T23:49:46.508Z,23.45
2018-08-30T23:52:18.413Z,23.38
2018-08-30T23:54:49.897Z,23.35
2018-08-30T23:57:21.592Z,23.41
